createdAt,value
2023-02-06T00:01:36.247Z,8.63
2023-02-06T00:04:04.400Z,10.73
2023-02-06T00:06:33.264Z,12.00
2023-02-06T00:09:01.362Z,11.68
2023-02-06T00:11:29.397Z,8.93
2023-02-06T00:13:57.538Z,8.95
2023-02-06T00:16:27.385Z,10.85
2023-02-06T00:18:58.585Z,7.60
2023-02-06T00:21:28.088Z,16.77
2023-02-06T00:23:58.630Z,16.95
2023-02-06T00:26:27.415Z,10.38
2023-02-06T00:28:55.600Z,10.70
2023-02-06T00:31:23.910Z,10.80
2023-02-06T00:33:52.026Z,13.85
2023-02-06T00:36:21.424Z,9.23
2023-02-06T00:38:49.564Z,13.65
2023-02-06T00:41:17.674Z,10.15
2023-02-06T00:43:45.838Z,12.63
2023-02-06T00:46:13.944Z,25.17
2023-02-06T00:48:42.114Z,9.30
2023-02-06T00:51:10.185Z,8.10
2023-02-06T00:53:40.076Z,9.27
2023-02-06T00:56:08.428Z,15.10
2023-02-06T00:58:36.575Z,10.70
2023-02-06T01:01:04.706Z,12.57
2023-02-06T01:03:32.820Z,8.50
2023-02-06T01:06:00.911Z,9.60
2023-02-06T01:08:29.070Z,8.93
2023-02-06T01:10:58.485Z,12.95
2023-02-06T01:13:26.670Z,9.68
2023-02-06T01:15:54.728Z,11.32
2023-02-06T01:18:22.850Z,14.27
2023-02-06T01:20:50.869Z,9.85
2023-02-06T01:23:18.955Z,13.60
2023-02-06T01:25:46.977Z,7.38
2023-02-06T01:28:16.477Z,10.40
2023-02-06T01:30:44.620Z,7.57
2023-02-06T01:33:12.754Z,8.65
2023-02-06T01:35:40.783Z,9.55
2023-02-06T01:38:08.883Z,10.98
2023-02-06T01:40:36.981Z,8.65
2023-02-06T01:43:05.164Z,10.07
2023-02-06T01:45:43.472Z,9.00
2023-02-06T01:48:18.235Z,11.85
2023-02-06T01:50:49.308Z,9.80
2023-02-06T01:53:19.254Z,11.18
2023-02-06T01:55:49.334Z,10.27
2023-02-06T01:58:22.270Z,9.15
2023-02-06T02:00:51.861Z,10.30
2023-02-06T02:03:20.092Z,10.50
2023-02-06T02:05:49.936Z,10.50
2023-02-06T02:08:22.194Z,9.88
2023-02-06T02:10:50.370Z,11.65
2023-02-06T02:13:18.637Z,13.20
2023-02-06T02:15:59.557Z,11.13
2023-02-06T02:18:42.785Z,11.27
2023-02-06T02:21:49.413Z,13.60
2023-02-06T02:24:26.474Z,11.93
2023-02-06T02:27:14.516Z,8.27
2023-02-06T02:30:07.608Z,12.38
2023-02-06T02:33:13.313Z,11.95
2023-02-06T02:35:54.809Z,10.35
2023-02-06T02:38:35.412Z,6.68
2023-02-06T02:41:09.606Z,9.77
2023-02-06T02:43:43.399Z,9.90
2023-02-06T02:46:18.945Z,11.82
2023-02-06T02:48:50.181Z,10.63
2023-02-06T02:51:20.131Z,9.50
2023-02-06T02:53:48.438Z,12.52
2023-02-06T02:56:21.327Z,12.43
2023-02-06T02:58:54.524Z,12.07
2023-02-06T03:01:27.655Z,11.20
2023-02-06T03:03:58.070Z,9.85
2023-02-06T03:06:49.693Z,13.98
2023-02-06T03:09:27.738Z,10.52
2023-02-06T03:12:05.614Z,9.38
2023-02-06T03:14:37.620Z,10.00
2023-02-06T03:17:10.933Z,10.07
2023-02-06T03:19:43.625Z,12.20
2023-02-06T03:22:15.153Z,14.50
2023-02-06T03:24:43.216Z,10.90
2023-02-06T03:27:16.050Z,10.45
2023-02-06T03:29:46.152Z,9.45
2023-02-06T03:32:18.539Z,18.45
2023-02-06T03:34:52.656Z,8.45
2023-02-06T03:37:23.334Z,8.60
2023-02-06T03:39:51.493Z,9.32
2023-02-06T03:42:22.838Z,16.48
2023-02-06T03:44:55.729Z,12.65
2023-02-06T03:47:25.405Z,14.55
2023-02-06T03:49:56.250Z,9.65
2023-02-06T03:52:28.736Z,11.55
2023-02-06T03:55:02.374Z,11.93
2023-02-06T03:57:33.134Z,10.20
2023-02-06T04:00:01.223Z,11.40
2023-02-06T04:02:30.009Z,12.18
2023-02-06T04:04:58.155Z,9.65
2023-02-06T04:07:30.716Z,16.45
2023-02-06T04:09:58.748Z,12.65
2023-02-06T04:12:27.024Z,10.45
2023-02-06T04:14:55.132Z,9.35
2023-02-06T04:17:40.514Z,9.90
2023-02-06T04:20:12.194Z,8.25
2023-02-06T04:22:42.619Z,13.05
2023-02-06T04:25:10.684Z,13.80
2023-02-06T04:27:38.999Z,12.88
2023-02-06T04:30:08.138Z,11.73
2023-02-06T04:32:36.197Z,15.55
2023-02-06T04:35:04.323Z,11.75
2023-02-06T04:37:33.173Z,13.80
2023-02-06T04:40:02.663Z,10.40
2023-02-06T04:42:30.736Z,15.18
2023-02-06T04:44:58.754Z,10.50
2023-02-06T04:47:26.961Z,13.73
2023-02-06T04:49:55.023Z,9.55
2023-02-06T04:52:23.052Z,9.40
2023-02-06T04:54:51.283Z,9.55
2023-02-06T04:57:20.707Z,12.00
2023-02-06T04:59:48.770Z,11.40
2023-02-06T05:02:16.873Z,11.48
2023-02-06T05:04:44.909Z,11.95
2023-02-06T05:07:12.933Z,11.60
2023-02-06T05:09:41.111Z,23.67
2023-02-06T05:12:09.222Z,11.73
2023-02-06T05:14:38.671Z,15.85
2023-02-06T05:17:06.695Z,12.68
2023-02-06T05:19:34.822Z,14.57
2023-02-06T05:22:03.039Z,12.30
2023-02-06T05:24:31.246Z,17.90
2023-02-06T05:26:59.289Z,12.02
2023-02-06T05:29:27.792Z,11.07
2023-02-06T05:31:57.921Z,12.05
2023-02-06T05:34:26.265Z,15.27
2023-02-06T05:36:54.304Z,15.77
2023-02-06T05:39:22.606Z,15.98
2023-02-06T05:41:50.697Z,10.88
2023-02-06T05:44:18.853Z,12.40
2023-02-06T05:46:48.401Z,11.88
2023-02-06T05:49:18.181Z,15.88
2023-02-06T05:51:46.220Z,18.83
2023-02-06T05:54:16.931Z,12.13
2023-02-06T05:56:45.138Z,17.45
2023-02-06T05:59:13.214Z,21.23
2023-02-06T06:01:41.260Z,18.55
2023-02-06T06:04:09.338Z,14.40
2023-02-06T06:06:38.750Z,14.35
2023-02-06T06:09:06.795Z,18.23
2023-02-06T06:11:34.836Z,15.57
2023-02-06T06:14:02.961Z,13.85
2023-02-06T06:16:30.998Z,22.80
2023-02-06T06:18:59.185Z,18.45
2023-02-06T06:21:27.347Z,19.15
2023-02-06T06:23:56.909Z,40.70
2023-02-06T06:26:25.025Z,21.20
2023-02-06T06:28:53.287Z,22.20
2023-02-06T06:31:21.465Z,26.38
2023-02-06T06:33:49.570Z,64.53
2023-02-06T06:36:17.812Z,47.70
2023-02-06T06:38:45.892Z,43.33
2023-02-06T06:41:15.514Z,31.92
2023-02-06T06:43:43.619Z,43.03
2023-02-06T06:46:11.700Z,35.00
2023-02-06T06:48:40.327Z,30.52
2023-02-06T06:51:08.532Z,38.92
2023-02-06T06:53:39.898Z,26.25
2023-02-06T06:56:10.859Z,19.85
2023-02-06T06:58:40.485Z,34.28
2023-02-06T07:01:09.586Z,37.38
2023-02-06T07:03:37.800Z,24.77
2023-02-06T07:06:06.233Z,28.20
2023-02-06T07:08:35.966Z,20.58
2023-02-06T07:11:04.054Z,19.27
2023-02-06T07:13:32.086Z,19.52
2023-02-06T07:16:01.541Z,16.40
2023-02-06T07:18:29.763Z,13.43
2023-02-06T07:20:57.805Z,24.55
2023-02-06T07:23:25.842Z,13.15
2023-02-06T07:25:54.053Z,14.68
2023-02-06T07:28:22.153Z,15.70
2023-02-06T07:30:50.268Z,18.27
2023-02-06T07:33:19.741Z,17.58
2023-02-06T07:35:48.153Z,22.70
2023-02-06T07:38:16.181Z,13.10
2023-02-06T07:40:45.412Z,19.02
2023-02-06T07:43:14.260Z,12.93
2023-02-06T07:45:42.544Z,12.68
2023-02-06T07:48:10.764Z,17.27
2023-02-06T07:50:40.217Z,13.23
2023-02-06T07:53:08.331Z,20.27
2023-02-06T07:55:38.593Z,14.85
2023-02-06T07:58:06.930Z,10.50
2023-02-06T08:00:35.054Z,18.98
2023-02-06T08:03:03.189Z,22.38
2023-02-06T08:05:31.253Z,15.77
2023-02-06T08:08:00.990Z,18.40
2023-02-06T08:10:29.488Z,17.13
2023-02-06T08:12:57.667Z,16.50
2023-02-06T08:15:25.946Z,11.23
2023-02-06T08:17:54.184Z,11.00
2023-02-06T08:20:22.323Z,6.13
2023-02-06T08:22:50.485Z,10.50
2023-02-06T08:25:20.057Z,6.67
2023-02-06T08:27:48.361Z,10.97
2023-02-06T08:30:16.702Z,6.87
2023-02-06T08:32:44.876Z,12.57
2023-02-06T08:35:12.894Z,6.00
2023-02-06T08:37:41.640Z,4.97
2023-02-06T08:40:10.867Z,11.67
2023-02-06T08:42:40.619Z,6.40
2023-02-06T08:45:09.639Z,6.90
2023-02-06T08:47:37.694Z,4.13
2023-02-06T08:50:06.281Z,5.93
2023-02-06T08:52:34.313Z,4.90
2023-02-06T08:55:02.401Z,5.23
2023-02-06T08:57:30.432Z,5.80
2023-02-06T08:59:59.892Z,13.30
2023-02-06T09:02:28.008Z,9.70
2023-02-06T09:04:56.046Z,10.43
2023-02-06T09:07:24.480Z,9.93
2023-02-06T09:09:52.600Z,4.90
2023-02-06T09:12:21.668Z,7.10
2023-02-06T09:14:49.915Z,54.57
2023-02-06T09:17:19.429Z,8.03
2023-02-06T09:19:47.482Z,8.03
2023-02-06T09:22:15.504Z,7.23
2023-02-06T09:24:43.850Z,5.50
2023-02-06T09:27:11.876Z,17.17
2023-02-06T09:29:39.949Z,8.37
2023-02-06T09:32:08.078Z,14.40
2023-02-06T09:34:37.770Z,11.27
2023-02-06T09:37:06.811Z,9.63
2023-02-06T09:39:34.911Z,7.03
2023-02-06T09:42:07.526Z,7.67
2023-02-06T09:44:39.469Z,10.03
2023-02-06T09:47:14.439Z,5.40
2023-02-06T09:49:46.498Z,9.30
2023-02-06T09:52:27.005Z,13.93
2023-02-06T09:55:03.211Z,9.10
2023-02-06T09:57:40.015Z,19.43
2023-02-06T10:00:17.559Z,8.90
2023-02-06T10:03:01.974Z,15.80
2023-02-06T10:05:48.457Z,5.70
2023-02-06T10:08:23.762Z,10.00
2023-02-06T10:10:55.473Z,10.00
2023-02-06T10:13:27.499Z,5.30
2023-02-06T10:16:01.479Z,6.00
2023-02-06T10:18:35.261Z,15.37
2023-02-06T10:21:12.298Z,6.97
2023-02-06T10:23:47.623Z,10.97
2023-02-06T10:26:18.627Z,11.20
2023-02-06T10:28:51.268Z,10.90
2023-02-06T10:31:47.634Z,14.07
2023-02-06T10:34:28.437Z,10.27
2023-02-06T10:37:14.908Z,7.53
2023-02-06T10:40:05.004Z,10.10
2023-02-06T10:42:47.775Z,8.47
2023-02-06T10:45:27.687Z,13.53
2023-02-06T10:48:01.545Z,9.07
2023-02-06T10:50:31.751Z,7.00
2023-02-06T10:53:05.258Z,8.93
2023-02-06T10:55:40.509Z,6.93
2023-02-06T10:58:17.506Z,16.70
2023-02-06T11:00:47.112Z,20.30
2023-02-06T11:03:19.687Z,12.80
2023-02-06T11:05:48.017Z,10.50
2023-02-06T11:08:22.927Z,7.10
2023-02-06T11:10:51.101Z,7.07
2023-02-06T11:13:26.839Z,6.50
2023-02-06T11:16:02.493Z,6.90
2023-02-06T11:18:34.298Z,13.67
2023-02-06T11:21:03.144Z,12.57
2023-02-06T11:23:34.694Z,9.60
2023-02-06T11:26:09.021Z,9.20
2023-02-06T11:28:39.785Z,11.50
2023-02-06T11:31:10.048Z,8.53
2023-02-06T11:33:42.699Z,16.23
2023-02-06T11:36:24.398Z,20.10
2023-02-06T11:38:59.245Z,16.87
2023-02-06T11:41:27.642Z,13.30
2023-02-06T11:44:02.480Z,15.83
2023-02-06T11:46:32.442Z,13.63
2023-02-06T11:49:07.204Z,8.43
2023-02-06T11:51:51.395Z,7.63
2023-02-06T11:54:29.757Z,10.13
2023-02-06T11:57:04.301Z,14.37
2023-02-06T11:59:34.648Z,11.40
2023-02-06T12:02:06.990Z,8.60
2023-02-06T12:04:39.619Z,15.63
2023-02-06T12:07:21.884Z,11.43
2023-02-06T12:09:53.167Z,9.53
2023-02-06T12:12:26.602Z,10.30
2023-02-06T12:14:57.888Z,12.33
2023-02-06T12:17:30.124Z,9.10
2023-02-06T12:20:03.968Z,10.53
2023-02-06T12:22:46.020Z,7.37
2023-02-06T12:25:34.652Z,9.00
2023-02-06T12:28:10.405Z,14.60
2023-02-06T12:30:43.393Z,7.87
2023-02-06T12:33:17.107Z,7.57
2023-02-06T12:35:48.260Z,9.30
2023-02-06T12:38:24.070Z,7.60
2023-02-06T12:41:09.310Z,27.00
2023-02-06T12:43:41.302Z,10.40
2023-02-06T12:46:17.361Z,9.70
2023-02-06T12:48:51.522Z,17.30
2023-02-06T12:51:23.948Z,7.23
2023-02-06T12:53:57.332Z,9.27
2023-02-06T12:56:31.155Z,9.47
2023-02-06T12:59:12.047Z,7.83
2023-02-06T13:01:56.759Z,8.37
2023-02-06T13:04:28.615Z,7.50
2023-02-06T13:07:04.002Z,6.93
2023-02-06T13:09:35.954Z,8.20
2023-02-06T13:12:13.530Z,8.37
2023-02-06T13:14:48.105Z,6.50
2023-02-06T13:17:20.668Z,7.07
2023-02-06T13:20:00.611Z,7.43
2023-02-06T13:22:49.360Z,5.93
2023-02-06T13:25:47.463Z,8.83
2023-02-06T13:28:46.732Z,5.63
2023-02-06T13:31:29.452Z,6.30
2023-02-06T13:34:01.084Z,14.20
2023-02-06T13:36:44.554Z,6.30
2023-02-06T13:39:41.277Z,10.93
2023-02-06T13:42:36.137Z,9.40
2023-02-06T13:45:07.682Z,10.10
2023-02-06T13:48:06.525Z,9.43
2023-02-06T13:50:43.981Z,10.60
2023-02-06T13:53:41.318Z,9.57
2023-02-06T13:56:21.481Z,8.90
2023-02-06T13:58:51.894Z,9.17
2023-02-06T14:01:23.861Z,9.30
2023-02-06T14:03:54.314Z,7.10
2023-02-06T14:06:41.493Z,7.83
2023-02-06T14:09:30.413Z,6.83
2023-02-06T14:12:24.115Z,6.37
2023-02-06T14:15:03.907Z,6.50
2023-02-06T14:18:00.256Z,9.07
2023-02-06T14:20:39.332Z,6.77
2023-02-06T14:23:15.749Z,5.97
2023-02-06T14:25:54.823Z,7.23
2023-02-06T14:28:31.560Z,8.87
2023-02-06T14:31:06.501Z,9.63
2023-02-06T14:33:53.629Z,4.93
2023-02-06T14:36:41.817Z,6.30
2023-02-06T14:39:36.274Z,7.60
2023-02-06T14:42:09.003Z,6.33
2023-02-06T14:44:37.165Z,4.73
2023-02-06T14:47:05.400Z,4.50
2023-02-06T14:49:38.279Z,5.97
2023-02-06T14:52:06.961Z,7.10
2023-02-06T14:54:38.257Z,5.50
2023-02-06T14:57:20.726Z,8.83
2023-02-06T14:59:57.998Z,6.90
2023-02-06T15:02:32.155Z,5.17
2023-02-06T15:05:03.065Z,5.97
2023-02-06T15:07:32.961Z,9.63
2023-02-06T15:10:08.519Z,6.57
2023-02-06T15:12:37.502Z,6.80
2023-02-06T15:15:17.765Z,8.97
2023-02-06T15:17:57.286Z,5.60
2023-02-06T15:20:33.395Z,8.77
2023-02-06T15:23:16.979Z,7.87
2023-02-06T15:26:03.588Z,5.70
2023-02-06T15:28:34.628Z,5.47
2023-02-06T15:31:03.719Z,7.10
2023-02-06T15:33:34.667Z,8.20
2023-02-06T15:36:05.335Z,5.53
2023-02-06T15:38:35.028Z,10.93
2023-02-06T15:41:06.607Z,6.80
2023-02-06T15:43:35.579Z,4.90
2023-02-06T15:46:06.290Z,10.07
2023-02-06T15:48:38.042Z,7.63
2023-02-06T15:51:21.231Z,6.20
2023-02-06T15:53:51.399Z,6.10
2023-02-06T15:56:24.135Z,8.00
2023-02-06T15:58:58.132Z,6.53
2023-02-06T16:01:27.605Z,7.40
2023-02-06T16:04:00.766Z,12.77
2023-02-06T16:06:30.210Z,7.43
2023-02-06T16:09:01.869Z,5.13
2023-02-06T16:11:47.462Z,6.90
2023-02-06T16:14:21.560Z,7.00
2023-02-06T16:16:58.568Z,10.13
2023-02-06T16:19:39.686Z,10.20
2023-02-06T16:22:18.170Z,7.57
2023-02-06T16:24:46.916Z,6.60
2023-02-06T16:27:21.372Z,8.87
2023-02-06T16:29:52.648Z,6.23
2023-02-06T16:32:24.506Z,6.93
2023-02-06T16:34:52.926Z,7.20
2023-02-06T16:37:24.737Z,16.13
2023-02-06T16:39:53.096Z,8.27
2023-02-06T16:42:23.226Z,11.07
2023-02-06T16:44:58.966Z,8.43
2023-02-06T16:47:27.698Z,10.40
2023-02-06T16:49:55.775Z,14.33
2023-02-06T16:52:27.131Z,9.67
2023-02-06T16:54:57.761Z,6.40
2023-02-06T16:57:30.029Z,8.47
2023-02-06T16:59:58.221Z,5.87
2023-02-06T17:02:27.892Z,6.47
2023-02-06T17:04:56.735Z,5.90
2023-02-06T17:07:28.290Z,7.73
2023-02-06T17:09:57.874Z,8.43
2023-02-06T17:12:26.000Z,13.17
2023-02-06T17:14:54.096Z,9.10
2023-02-06T17:17:23.800Z,7.57
2023-02-06T17:19:53.345Z,7.07
2023-02-06T17:22:21.906Z,10.57
2023-02-06T17:24:51.363Z,7.43
2023-02-06T17:27:22.307Z,10.90
2023-02-06T17:29:51.386Z,10.90
2023-02-06T17:32:22.193Z,10.07
2023-02-06T17:34:51.506Z,5.50
2023-02-06T17:37:21.639Z,11.40
2023-02-06T17:39:52.742Z,6.60
2023-02-06T17:42:23.178Z,7.97
2023-02-06T17:44:51.495Z,9.00
2023-02-06T17:47:19.602Z,11.60
2023-02-06T17:49:47.835Z,7.07
2023-02-06T17:52:16.154Z,8.10
2023-02-06T17:54:45.359Z,9.53
2023-02-06T17:57:14.879Z,13.53
2023-02-06T17:59:42.984Z,8.90
2023-02-06T18:02:13.714Z,13.70
2023-02-06T18:04:41.798Z,8.02
2023-02-06T18:07:09.897Z,7.10
2023-02-06T18:09:41.066Z,10.50
2023-02-06T18:12:10.257Z,9.20
2023-02-06T18:14:40.679Z,9.70
2023-02-06T18:17:09.694Z,8.17
2023-02-06T18:19:42.389Z,6.17
2023-02-06T18:22:12.087Z,9.83
2023-02-06T18:24:40.784Z,8.70
2023-02-06T18:27:09.718Z,13.87
2023-02-06T18:29:49.260Z,9.57
2023-02-06T18:32:18.581Z,9.48
2023-02-06T18:34:47.043Z,10.98
2023-02-06T18:37:15.363Z,11.15
2023-02-06T18:39:43.519Z,9.25
2023-02-06T18:42:29.722Z,9.20
2023-02-06T18:44:59.195Z,10.70
2023-02-06T18:47:27.303Z,7.38
2023-02-06T18:49:55.428Z,8.98
2023-02-06T18:52:23.555Z,7.10
2023-02-06T18:54:51.669Z,7.68
2023-02-06T18:57:19.746Z,6.68
2023-02-06T18:59:47.931Z,9.65
2023-02-06T19:02:17.617Z,7.88
2023-02-06T19:04:45.770Z,8.15
2023-02-06T19:07:13.836Z,9.18
2023-02-06T19:09:41.914Z,7.68
2023-02-06T19:12:10.406Z,8.00
2023-02-06T19:14:38.664Z,8.38
2023-02-06T19:17:06.905Z,10.75
2023-02-06T19:19:36.331Z,15.15
2023-02-06T19:22:04.367Z,7.37
2023-02-06T19:24:32.553Z,8.10
2023-02-06T19:27:02.023Z,9.30
2023-02-06T19:29:36.307Z,8.27
2023-02-06T19:32:05.423Z,8.65
2023-02-06T19:34:36.081Z,8.68
2023-02-06T19:37:06.322Z,10.10
2023-02-06T19:39:35.754Z,9.75
2023-02-06T19:42:06.674Z,7.95
2023-02-06T19:44:35.451Z,7.95
2023-02-06T19:47:03.808Z,7.30
2023-02-06T19:49:32.132Z,15.02
2023-02-06T19:52:00.229Z,11.73
2023-02-06T19:54:29.931Z,10.50
2023-02-06T19:56:58.045Z,11.02
2023-02-06T19:59:28.394Z,14.48
2023-02-06T20:01:58.729Z,18.45
2023-02-06T20:04:28.625Z,7.30
2023-02-06T20:06:56.907Z,9.57
2023-02-06T20:09:25.743Z,10.48
2023-02-06T20:11:55.753Z,14.32
2023-02-06T20:14:25.076Z,11.40
2023-02-06T20:16:53.333Z,17.05
2023-02-06T20:19:23.372Z,10.93
2023-02-06T20:21:54.435Z,9.88
2023-02-06T20:24:24.629Z,10.85
2023-02-06T20:26:56.321Z,10.55
2023-02-06T20:29:27.693Z,9.48
2023-02-06T20:31:56.679Z,13.98
2023-02-06T20:34:25.750Z,12.48
2023-02-06T20:36:54.245Z,12.77
2023-02-06T20:39:22.684Z,16.48
2023-02-06T20:41:50.912Z,10.70
2023-02-06T20:44:21.634Z,12.65
2023-02-06T20:46:49.787Z,14.07
2023-02-06T20:49:20.039Z,9.77
2023-02-06T20:51:49.018Z,10.98
2023-02-06T20:54:17.609Z,10.52
2023-02-06T20:56:46.360Z,8.98
2023-02-06T20:59:15.718Z,14.90
2023-02-06T21:01:45.441Z,15.13
2023-02-06T21:04:15.588Z,15.43
2023-02-06T21:06:44.436Z,10.93
2023-02-06T21:09:13.306Z,11.07
2023-02-06T21:11:44.822Z,13.35
2023-02-06T21:14:13.910Z,11.95
2023-02-06T21:16:43.679Z,12.57
2023-02-06T21:19:15.486Z,10.73
2023-02-06T21:21:46.094Z,12.23
2023-02-06T21:24:14.668Z,18.83
2023-02-06T21:26:43.362Z,13.23
2023-02-06T21:29:13.802Z,14.25
2023-02-06T21:31:42.211Z,11.85
2023-02-06T21:34:16.969Z,12.25
2023-02-06T21:36:45.835Z,13.35
2023-02-06T21:39:17.612Z,11.18
2023-02-06T21:41:46.305Z,11.48
2023-02-06T21:44:14.562Z,15.57
2023-02-06T21:46:42.633Z,13.00
2023-02-06T21:49:11.727Z,13.50
2023-02-06T21:51:41.301Z,16.30
2023-02-06T21:54:09.875Z,14.60
2023-02-06T21:56:39.363Z,14.77
2023-02-06T21:59:08.861Z,14.85
2023-02-06T22:01:38.263Z,13.95
2023-02-06T22:04:06.458Z,11.73
2023-02-06T22:06:36.939Z,18.40
2023-02-06T22:09:08.571Z,14.40
2023-02-06T22:11:39.052Z,14.63
2023-02-06T22:14:12.065Z,14.32
2023-02-06T22:16:40.670Z,17.00
2023-02-06T22:19:09.086Z,13.02
2023-02-06T22:21:37.410Z,17.10
2023-02-06T22:24:09.052Z,12.65
2023-02-06T22:26:39.376Z,13.50
2023-02-06T22:29:08.522Z,21.20
2023-02-06T22:31:38.612Z,13.43
2023-02-06T22:34:11.740Z,15.35
2023-02-06T22:36:40.320Z,13.60
2023-02-06T22:39:12.482Z,13.27
2023-02-06T22:41:42.231Z,11.60
2023-02-06T22:44:11.580Z,15.85
2023-02-06T22:46:40.591Z,15.20
2023-02-06T22:49:09.929Z,17.90
2023-02-06T22:51:38.582Z,17.05
2023-02-06T22:54:09.376Z,16.92
2023-02-06T22:56:41.235Z,14.73
2023-02-06T22:59:12.443Z,14.32
2023-02-06T23:01:42.835Z,14.15
2023-02-06T23:04:14.482Z,16.67
2023-02-06T23:06:43.378Z,15.75
2023-02-06T23:09:14.595Z,12.65
2023-02-06T23:11:44.141Z,15.18
2023-02-06T23:14:14.049Z,20.33
2023-02-06T23:16:42.809Z,16.67
2023-02-06T23:19:13.235Z,14.15
2023-02-06T23:21:42.977Z,18.23
2023-02-06T23:24:11.776Z,16.85
2023-02-06T23:26:41.823Z,19.98
2023-02-06T23:29:15.704Z,16.40
2023-02-06T23:31:44.235Z,13.98
2023-02-06T23:34:12.472Z,16.85
2023-02-06T23:36:40.970Z,17.80
2023-02-06T23:39:09.078Z,18.02
2023-02-06T23:41:37.103Z,18.27
2023-02-06T23:44:07.130Z,21.08
2023-02-06T23:46:38.472Z,17.40
2023-02-06T23:49:06.962Z,19.60
2023-02-06T23:51:36.415Z,20.67
2023-02-06T23:54:05.252Z,24.23
2023-02-06T23:56:34.011Z,17.70
2023-02-06T23:59:03.946Z,18.08
